createdAt,value
2023-02-03T00:02:15.763Z,9.68
2023-02-03T00:04:43.325Z,12.77
2023-02-03T00:07:13.621Z,9.30
2023-02-03T00:09:41.900Z,10.85
2023-02-03T00:12:09.511Z,10.77
2023-02-03T00:14:38.146Z,11.30
2023-02-03T00:17:06.000Z,12.68
2023-02-03T00:19:33.502Z,10.10
2023-02-03T00:22:00.770Z,12.57
2023-02-03T00:24:28.723Z,10.90
2023-02-03T00:26:56.065Z,12.45
2023-02-03T00:29:26.105Z,14.38
2023-02-03T00:31:54.622Z,15.02
2023-02-03T00:34:22.419Z,15.55
2023-02-03T00:36:49.768Z,16.25
2023-02-03T00:39:17.366Z,12.82
2023-02-03T00:41:44.880Z,13.15
2023-02-03T00:44:12.411Z,12.43
2023-02-03T00:46:40.132Z,14.38
2023-02-03T00:49:08.119Z,16.08
2023-02-03T00:51:35.410Z,17.25
2023-02-03T00:54:03.031Z,16.65
2023-02-03T00:56:31.309Z,14.75
2023-02-03T00:58:58.836Z,14.32
2023-02-03T01:01:27.272Z,15.45
2023-02-03T01:03:56.246Z,13.30
2023-02-03T01:06:24.092Z,13.65
2023-02-03T01:08:52.171Z,16.48
2023-02-03T01:11:22.637Z,14.55
2023-02-03T01:13:52.019Z,17.92
2023-02-03T01:16:21.221Z,13.43
2023-02-03T01:18:49.455Z,12.57
2023-02-03T01:21:20.340Z,13.50
2023-02-03T01:23:48.562Z,16.55
2023-02-03T01:26:18.731Z,12.70
2023-02-03T01:28:56.795Z,13.57
2023-02-03T01:31:26.973Z,13.38
2023-02-03T01:33:55.652Z,13.73
2023-02-03T01:36:25.727Z,13.02
2023-02-03T01:38:53.734Z,11.20
2023-02-03T01:41:26.015Z,14.73
2023-02-03T01:43:55.581Z,11.13
2023-02-03T01:46:26.091Z,11.52
2023-02-03T01:48:56.904Z,11.98
2023-02-03T01:51:24.920Z,14.35
2023-02-03T01:53:54.777Z,9.38
2023-02-03T01:56:22.634Z,9.40
2023-02-03T01:58:51.167Z,10.25
2023-02-03T02:01:19.724Z,10.73
2023-02-03T02:03:54.629Z,8.85
2023-02-03T02:06:21.926Z,11.35
2023-02-03T02:08:52.517Z,7.80
2023-02-03T02:11:21.568Z,9.82
2023-02-03T02:13:52.525Z,7.75
2023-02-03T02:16:26.959Z,8.30
2023-02-03T02:19:06.783Z,6.88
2023-02-03T02:21:52.535Z,8.60
2023-02-03T02:24:42.664Z,10.05
2023-02-03T02:27:28.129Z,8.70
2023-02-03T02:30:09.492Z,11.02
2023-02-03T02:32:42.733Z,8.50
2023-02-03T02:36:06.031Z,7.25
2023-02-03T02:38:46.653Z,8.73
2023-02-03T02:41:30.150Z,6.72
2023-02-03T02:44:08.014Z,7.88
2023-02-03T02:46:48.644Z,9.30
2023-02-03T02:49:35.954Z,10.35
2023-02-03T02:52:07.511Z,6.57
2023-02-03T02:54:41.023Z,8.35
2023-02-03T02:57:13.595Z,7.45
2023-02-03T02:59:40.874Z,7.30
2023-02-03T03:02:11.013Z,7.82
2023-02-03T03:04:40.752Z,6.65
2023-02-03T03:07:29.953Z,8.20
2023-02-03T03:10:02.573Z,6.82
2023-02-03T03:12:48.291Z,7.47
2023-02-03T03:15:24.564Z,6.80
2023-02-03T03:18:00.541Z,6.57
2023-02-03T03:20:28.878Z,5.03
2023-02-03T03:23:10.804Z,8.73
2023-02-03T03:25:46.117Z,4.38
2023-02-03T03:28:20.913Z,7.93
2023-02-03T03:30:48.334Z,8.13
2023-02-03T03:33:16.244Z,5.20
2023-02-03T03:35:55.812Z,6.38
2023-02-03T03:38:37.754Z,9.18
2023-02-03T03:41:23.165Z,9.30
2023-02-03T03:43:53.864Z,8.60
2023-02-03T03:46:27.414Z,6.93
2023-02-03T03:48:59.198Z,6.35
2023-02-03T03:51:40.456Z,6.40
2023-02-03T03:54:13.128Z,5.85
2023-02-03T03:57:03.420Z,9.40
2023-02-03T03:59:35.833Z,6.80
2023-02-03T04:02:05.120Z,5.68
2023-02-03T04:04:36.680Z,6.53
2023-02-03T04:07:03.927Z,5.90
2023-02-03T04:09:31.751Z,7.03
2023-02-03T04:12:01.848Z,7.60
2023-02-03T04:14:30.628Z,9.13
2023-02-03T04:16:58.717Z,5.70
2023-02-03T04:19:26.609Z,7.05
2023-02-03T04:21:53.892Z,5.75
2023-02-03T04:24:21.500Z,7.95
2023-02-03T04:26:48.812Z,5.25
2023-02-03T04:29:16.303Z,5.78
2023-02-03T04:31:43.553Z,4.75
2023-02-03T04:34:11.164Z,7.03
2023-02-03T04:36:38.605Z,6.10
2023-02-03T04:39:06.130Z,13.05
2023-02-03T04:41:33.441Z,4.80
2023-02-03T04:44:01.291Z,5.55
2023-02-03T04:46:28.612Z,5.18
2023-02-03T04:48:56.114Z,4.47
2023-02-03T04:51:23.349Z,5.45
2023-02-03T04:53:51.281Z,5.05
2023-02-03T04:56:18.490Z,5.72
2023-02-03T04:58:46.006Z,5.85
2023-02-03T05:01:13.332Z,6.57
2023-02-03T05:03:40.928Z,6.60
2023-02-03T05:06:08.290Z,9.45
2023-02-03T05:08:35.819Z,11.63
2023-02-03T05:11:04.255Z,8.32
2023-02-03T05:13:32.752Z,11.93
2023-02-03T05:16:00.041Z,7.65
2023-02-03T05:18:27.591Z,10.10
2023-02-03T05:20:54.829Z,9.50
2023-02-03T05:23:22.457Z,12.25
2023-02-03T05:25:49.728Z,11.38
2023-02-03T05:28:17.304Z,11.13
2023-02-03T05:30:44.708Z,11.57
2023-02-03T05:33:12.199Z,9.15
2023-02-03T05:35:39.428Z,20.02
2023-02-03T05:38:07.531Z,9.55
2023-02-03T05:40:53.448Z,10.25
2023-02-03T05:43:20.942Z,10.57
2023-02-03T05:45:48.211Z,13.55
2023-02-03T05:48:15.776Z,13.05
2023-02-03T05:50:43.115Z,17.30
2023-02-03T05:53:10.806Z,13.15
2023-02-03T05:55:38.309Z,11.27
2023-02-03T05:58:05.819Z,15.73
2023-02-03T06:00:33.289Z,23.00
2023-02-03T06:03:02.711Z,19.38
2023-02-03T06:05:32.153Z,25.70
2023-02-03T06:08:00.423Z,25.55
2023-02-03T06:10:28.163Z,19.25
2023-02-03T06:12:55.933Z,28.20
2023-02-03T06:15:23.264Z,29.58
2023-02-03T06:17:50.955Z,34.28
2023-02-03T06:20:20.566Z,29.15
2023-02-03T06:22:48.152Z,26.20
2023-02-03T06:25:15.541Z,21.60
2023-02-03T06:27:43.047Z,21.50
2023-02-03T06:30:11.651Z,16.48
2023-02-03T06:32:39.156Z,17.05
2023-02-03T06:35:06.782Z,19.17
2023-02-03T06:37:35.763Z,23.42
2023-02-03T06:40:04.496Z,27.33
2023-02-03T06:42:32.098Z,26.50
2023-02-03T06:44:59.671Z,28.20
2023-02-03T06:47:27.359Z,27.30
2023-02-03T06:49:54.652Z,26.27
2023-02-03T06:52:22.226Z,31.55
2023-02-03T06:54:49.500Z,33.05
2023-02-03T06:57:17.185Z,28.40
2023-02-03T06:59:44.409Z,32.88
2023-02-03T07:02:12.233Z,31.58
2023-02-03T07:04:39.601Z,35.58
2023-02-03T07:07:07.189Z,32.10
2023-02-03T07:09:34.415Z,30.70
2023-02-03T07:12:01.968Z,32.25
2023-02-03T07:14:31.152Z,30.65
2023-02-03T07:16:58.772Z,29.05
2023-02-03T07:19:26.112Z,25.35
2023-02-03T07:21:53.751Z,25.08
2023-02-03T07:24:21.018Z,26.27
2023-02-03T07:26:48.599Z,27.88
2023-02-03T07:29:15.885Z,31.55
2023-02-03T07:31:43.560Z,28.02
2023-02-03T07:34:10.908Z,24.38
2023-02-03T07:36:38.487Z,26.55
2023-02-03T07:39:05.775Z,21.85
2023-02-03T07:41:33.459Z,22.67
2023-02-03T07:44:00.772Z,24.65
2023-02-03T07:46:28.414Z,29.83
2023-02-03T07:48:55.722Z,27.30
2023-02-03T07:51:23.271Z,21.52
2023-02-03T07:53:50.517Z,21.40
2023-02-03T07:56:18.050Z,27.00
2023-02-03T07:58:45.431Z,23.02
2023-02-03T08:01:15.616Z,27.67
2023-02-03T08:03:43.733Z,23.55
2023-02-03T08:06:11.236Z,20.48
2023-02-03T08:08:38.459Z,23.42
2023-02-03T08:11:05.986Z,27.20
2023-02-03T08:13:33.491Z,23.17
2023-02-03T08:16:01.231Z,30.02
2023-02-03T08:18:30.221Z,24.42
2023-02-03T08:20:59.269Z,20.85
2023-02-03T08:23:26.543Z,17.27
2023-02-03T08:25:54.192Z,20.55
2023-02-03T08:28:21.703Z,20.95
2023-02-03T08:30:49.474Z,20.02
2023-02-03T08:33:16.895Z,25.15
2023-02-03T08:35:49.696Z,23.95
2023-02-03T08:38:17.634Z,16.92
2023-02-03T08:40:45.186Z,18.85
2023-02-03T08:43:12.484Z,18.60
2023-02-03T08:45:41.083Z,19.08
2023-02-03T08:48:08.721Z,21.77
2023-02-03T08:50:36.501Z,19.25
2023-02-03T08:53:03.730Z,18.08
2023-02-03T08:55:31.257Z,25.65
2023-02-03T08:57:58.539Z,17.92
2023-02-03T09:00:26.831Z,18.10
2023-02-03T09:02:54.294Z,21.58
2023-02-03T09:05:22.454Z,19.42
2023-02-03T09:07:49.720Z,17.05
2023-02-03T09:10:17.299Z,18.15
2023-02-03T09:12:44.500Z,24.30
2023-02-03T09:15:12.036Z,18.88
2023-02-03T09:17:39.315Z,29.08
2023-02-03T09:20:07.563Z,21.55
2023-02-03T09:22:34.864Z,25.10
2023-02-03T09:25:02.555Z,21.88
2023-02-03T09:27:29.782Z,22.45
2023-02-03T09:29:58.623Z,25.17
2023-02-03T09:32:25.864Z,25.50
2023-02-03T09:34:53.363Z,21.85
2023-02-03T09:37:20.606Z,23.23
2023-02-03T09:39:48.970Z,21.27
2023-02-03T09:42:55.702Z,26.48
2023-02-03T09:45:27.271Z,28.02
2023-02-03T09:47:59.918Z,24.45
2023-02-03T09:50:32.010Z,23.50
2023-02-03T09:53:03.687Z,26.33
2023-02-03T09:58:12.796Z,27.77
2023-02-03T10:00:44.754Z,30.50
2023-02-03T10:03:22.962Z,21.45
2023-02-03T10:06:02.724Z,26.27
2023-02-03T10:09:00.904Z,30.17
2023-02-03T10:11:37.650Z,30.02
2023-02-03T10:14:23.170Z,29.73
2023-02-03T10:16:59.758Z,28.58
2023-02-03T10:19:54.052Z,37.38
2023-02-03T10:22:28.193Z,32.53
2023-02-03T10:25:12.260Z,34.92
2023-02-03T10:27:42.648Z,30.02
2023-02-03T10:30:23.645Z,38.88
2023-02-03T10:33:09.168Z,37.77
2023-02-03T10:35:55.290Z,35.70
2023-02-03T10:38:46.079Z,41.50
2023-02-03T10:41:15.182Z,43.90
2023-02-03T10:43:48.629Z,48.55
2023-02-03T10:46:17.589Z,50.92
2023-02-03T10:48:45.235Z,53.25
2023-02-03T10:51:21.899Z,60.53
2023-02-03T10:53:53.396Z,63.28
2023-02-03T10:56:41.095Z,57.80
2023-02-03T10:59:29.638Z,64.82
2023-02-03T11:01:57.326Z,69.50
2023-02-03T11:04:31.087Z,72.63
2023-02-03T11:07:03.880Z,67.88
2023-02-03T11:09:36.001Z,67.55
2023-02-03T11:12:18.252Z,65.20
2023-02-03T11:14:51.110Z,70.47
2023-02-03T11:17:23.589Z,63.92
2023-02-03T11:19:54.036Z,70.22
2023-02-03T11:22:36.282Z,68.28
2023-02-03T11:25:16.659Z,70.20
2023-02-03T11:27:44.326Z,74.70
2023-02-03T11:30:12.011Z,63.88
2023-02-03T11:32:41.802Z,64.82
2023-02-03T11:35:22.914Z,75.88
2023-02-03T11:37:56.384Z,77.30
2023-02-03T11:40:27.449Z,75.85
2023-02-03T11:42:57.844Z,86.23
2023-02-03T11:45:52.243Z,91.50
2023-02-03T11:48:33.345Z,84.07
2023-02-03T11:51:03.977Z,89.00
2023-02-03T11:54:01.706Z,93.10
2023-02-03T11:56:35.042Z,96.47
2023-02-03T11:59:14.461Z,90.03
2023-02-03T12:02:05.777Z,115.10
2023-02-03T12:04:54.590Z,90.53
2023-02-03T12:07:31.854Z,93.20
2023-02-03T12:10:08.248Z,88.57
2023-02-03T12:12:47.939Z,85.63
2023-02-03T12:15:47.124Z,79.72
2023-02-03T12:18:26.990Z,87.38
2023-02-03T12:21:31.845Z,87.63
2023-02-03T12:24:14.487Z,84.72
2023-02-03T12:26:50.856Z,95.03
2023-02-03T12:29:24.941Z,92.78
2023-02-03T12:32:14.588Z,103.72
2023-02-03T12:34:53.963Z,108.32
2023-02-03T12:37:30.745Z,112.15
2023-02-03T12:40:15.394Z,116.82
2023-02-03T12:42:57.815Z,122.25
2023-02-03T12:45:36.946Z,110.88
2023-02-03T12:48:59.815Z,118.43
2023-02-03T12:51:45.279Z,131.20
2023-02-03T12:54:51.301Z,126.55
2023-02-03T12:57:27.239Z,108.88
2023-02-03T13:00:07.880Z,125.65
2023-02-03T13:02:49.782Z,117.32
2023-02-03T13:05:55.985Z,121.55
2023-02-03T13:08:36.271Z,125.15
2023-02-03T13:11:41.059Z,131.13
2023-02-03T13:14:33.237Z,112.55
2023-02-03T13:17:25.133Z,113.00
2023-02-03T13:23:23.280Z,113.40
2023-02-03T13:26:12.526Z,106.07
2023-02-03T13:29:21.622Z,117.28
2023-02-03T13:32:21.106Z,100.15
2023-02-03T13:35:52.841Z,100.35
2023-02-03T13:39:37.012Z,96.43
2023-02-03T13:43:36.928Z,102.32
2023-02-03T13:46:09.513Z,106.28
2023-02-03T13:48:37.251Z,98.72
2023-02-03T13:51:18.855Z,98.90
2023-02-03T13:53:48.979Z,105.45
2023-02-03T13:56:34.981Z,114.00
2023-02-03T13:59:14.400Z,120.85
2023-02-03T14:01:42.925Z,131.05
2023-02-03T14:04:31.907Z,133.38
2023-02-03T14:07:02.960Z,147.10
2023-02-03T14:09:35.785Z,142.15
2023-02-03T14:12:15.648Z,162.32
2023-02-03T14:15:04.517Z,166.98
2023-02-03T14:17:35.183Z,181.38
2023-02-03T14:20:05.815Z,188.60
2023-02-03T14:22:33.496Z,193.05
2023-02-03T14:25:07.047Z,182.68
2023-02-03T14:27:35.014Z,193.23
2023-02-03T14:30:13.673Z,198.30
2023-02-03T14:33:02.953Z,183.90
2023-02-03T14:35:35.067Z,189.02
2023-02-03T14:38:06.467Z,187.88
2023-02-03T14:40:56.983Z,157.93
2023-02-03T14:43:51.487Z,177.05
2023-02-03T14:46:43.438Z,178.95
2023-02-03T14:52:02.539Z,168.82
2023-02-03T14:54:46.278Z,160.40
2023-02-03T14:57:52.408Z,153.63
2023-02-03T15:00:19.874Z,128.63
2023-02-03T15:03:12.009Z,160.80
2023-02-03T15:05:42.976Z,150.45
2023-02-03T15:08:44.437Z,137.10
2023-02-03T15:11:33.437Z,146.75
2023-02-03T15:14:33.275Z,140.68
2023-02-03T15:17:12.682Z,144.82
2023-02-03T15:19:42.632Z,156.50
2023-02-03T15:22:25.091Z,153.07
2023-02-03T15:25:04.442Z,147.35
2023-02-03T15:27:33.025Z,158.15
2023-02-03T15:30:18.364Z,147.50
2023-02-03T15:33:05.570Z,151.40
2023-02-03T15:35:36.737Z,147.45
2023-02-03T15:38:14.221Z,138.27
2023-02-03T15:40:47.340Z,144.95
2023-02-03T15:43:20.825Z,132.85
2023-02-03T15:46:00.412Z,125.78
2023-02-03T15:48:38.374Z,136.88
2023-02-03T15:51:08.171Z,119.35
2023-02-03T15:54:06.550Z,110.30
2023-02-03T15:56:44.721Z,119.75
2023-02-03T15:59:35.314Z,104.82
2023-02-03T16:02:19.554Z,119.07
2023-02-03T16:04:48.012Z,111.50
2023-02-03T16:07:25.530Z,103.75
2023-02-03T16:09:54.962Z,112.00
2023-02-03T16:12:26.567Z,100.88
2023-02-03T16:17:25.313Z,95.13
2023-02-03T16:20:13.305Z,75.35
2023-02-03T16:23:00.051Z,82.70
2023-02-03T16:25:30.699Z,81.70
2023-02-03T16:28:29.810Z,81.53
2023-02-03T16:31:17.253Z,78.55
2023-02-03T16:34:08.384Z,78.32
2023-02-03T16:36:59.467Z,72.53
2023-02-03T16:39:45.728Z,68.60
2023-02-03T16:42:37.347Z,65.53
2023-02-03T16:45:32.461Z,69.23
2023-02-03T16:48:19.039Z,62.50
2023-02-03T16:51:13.012Z,55.00
2023-02-03T16:53:40.715Z,50.22
2023-02-03T16:56:07.962Z,47.60
2023-02-03T16:58:35.714Z,48.10
2023-02-03T17:01:05.785Z,43.13
2023-02-03T17:03:37.588Z,40.85
2023-02-03T17:06:07.505Z,42.00
2023-02-03T17:08:35.608Z,42.67
2023-02-03T17:11:18.580Z,36.35
2023-02-03T17:13:46.966Z,43.35
2023-02-03T17:16:17.431Z,33.63
2023-02-03T17:18:48.295Z,32.10
2023-02-03T17:21:22.216Z,29.40
2023-02-03T17:23:50.117Z,28.30
2023-02-03T17:26:17.367Z,20.48
2023-02-03T17:28:45.362Z,28.23
2023-02-03T17:31:18.091Z,27.23
2023-02-03T17:33:46.564Z,19.50
2023-02-03T17:36:16.558Z,17.88
2023-02-03T17:55:19.426Z,18.05
2023-02-03T17:57:46.713Z,18.80
2023-02-03T18:00:14.608Z,25.50
2023-02-03T18:02:43.222Z,22.88
2023-02-03T18:05:11.419Z,29.33
2023-02-03T18:07:38.677Z,32.47
2023-02-03T18:10:06.298Z,29.70
2023-02-03T18:12:33.611Z,32.40
2023-02-03T18:15:01.249Z,29.52
2023-02-03T18:17:28.631Z,35.03
2023-02-03T18:19:56.510Z,39.42
2023-02-03T18:22:24.161Z,34.47
2023-02-03T18:24:52.356Z,31.73
2023-02-03T18:27:20.107Z,36.90
2023-02-03T18:29:48.432Z,33.50
2023-02-03T18:32:16.865Z,31.80
2023-02-03T18:34:44.442Z,33.67
2023-02-03T18:37:12.355Z,29.20
2023-02-03T18:39:39.939Z,27.02
2023-02-03T18:42:07.424Z,28.20
2023-02-03T18:44:34.959Z,30.88
2023-02-03T18:47:07.055Z,25.95
2023-02-03T18:49:36.288Z,26.70
2023-02-03T18:52:04.370Z,25.73
2023-02-03T18:54:32.143Z,29.42
2023-02-03T18:56:59.453Z,25.02
2023-02-03T18:59:27.099Z,21.80
2023-02-03T19:01:54.472Z,18.98
2023-02-03T19:04:22.613Z,16.80
2023-02-03T19:06:50.129Z,24.20
2023-02-03T19:09:19.339Z,17.40
2023-02-03T19:11:46.666Z,18.83
2023-02-03T19:14:16.426Z,16.42
2023-02-03T19:16:44.108Z,15.85
2023-02-03T19:19:14.961Z,16.60
2023-02-03T19:21:42.253Z,16.00
2023-02-03T19:24:13.120Z,16.67
2023-02-03T19:26:40.477Z,22.77
2023-02-03T19:29:08.033Z,21.17
2023-02-03T19:31:38.065Z,15.32
2023-02-03T19:34:05.944Z,18.65
2023-02-03T19:36:33.224Z,17.20
2023-02-03T19:39:00.767Z,15.77
2023-02-03T19:41:28.113Z,20.45
2023-02-03T19:43:55.772Z,21.70
2023-02-03T19:46:23.576Z,13.23
2023-02-03T19:48:51.172Z,26.25
2023-02-03T19:51:18.507Z,17.35
2023-02-03T19:53:46.015Z,14.25
2023-02-03T19:56:13.684Z,17.23
2023-02-03T19:58:41.408Z,16.98
2023-02-03T20:01:10.261Z,17.00
2023-02-03T20:03:37.809Z,19.88
2023-02-03T20:06:05.368Z,19.45
2023-02-03T20:08:32.956Z,16.30
2023-02-03T20:11:00.328Z,19.95
2023-02-03T20:13:27.898Z,22.48
2023-02-03T20:15:55.360Z,20.23
2023-02-03T20:18:23.182Z,18.40
2023-02-03T20:20:55.353Z,22.52
2023-02-03T20:23:23.969Z,23.25
2023-02-03T20:25:55.400Z,19.08
2023-02-03T20:28:25.503Z,18.08
2023-02-03T20:30:58.996Z,25.50
2023-02-03T20:33:28.108Z,23.67
2023-02-03T20:35:56.640Z,18.63
2023-02-03T20:38:25.066Z,30.63
2023-02-03T20:40:52.366Z,24.75
2023-02-03T20:43:25.160Z,22.30
2023-02-03T20:45:53.223Z,26.75
2023-02-03T20:48:22.578Z,21.05
2023-02-03T20:50:50.400Z,19.00
2023-02-03T20:53:19.940Z,24.42
2023-02-03T20:55:48.578Z,23.92
2023-02-03T20:58:26.280Z,23.15
2023-02-03T21:00:57.216Z,27.73
2023-02-03T21:03:44.672Z,20.98
2023-02-03T21:06:14.804Z,26.00
2023-02-03T21:08:44.354Z,27.77
2023-02-03T21:11:26.613Z,32.65
2023-02-03T21:13:54.286Z,36.13
2023-02-03T21:16:25.366Z,34.40
2023-02-03T21:19:02.910Z,42.53
2023-02-03T21:21:40.298Z,38.55
2023-02-03T21:24:28.945Z,35.25
2023-02-03T21:26:57.704Z,31.85
2023-02-03T21:29:36.877Z,34.92
2023-02-03T21:32:04.366Z,31.48
2023-02-03T21:34:33.171Z,30.65
2023-02-03T21:37:31.322Z,25.00
2023-02-03T21:39:58.850Z,20.73
2023-02-03T21:42:42.666Z,22.30
2023-02-03T21:45:16.911Z,22.60
2023-02-03T21:47:46.072Z,20.52
2023-02-03T21:50:36.685Z,17.38
2023-02-03T21:53:24.024Z,12.10
2023-02-03T21:55:51.771Z,13.73
2023-02-03T21:58:26.143Z,13.00
2023-02-03T22:00:55.920Z,12.88
2023-02-03T22:03:40.806Z,8.90
2023-02-03T22:06:08.386Z,9.00
2023-02-03T22:08:41.171Z,9.85
2023-02-03T22:11:09.456Z,9.35
2023-02-03T22:13:36.828Z,7.43
2023-02-03T22:16:05.075Z,7.72
2023-02-03T22:18:32.523Z,7.72
2023-02-03T22:21:00.594Z,7.22
2023-02-03T22:23:27.848Z,5.15
2023-02-03T22:25:55.538Z,6.38
2023-02-03T22:28:22.763Z,17.52
2023-02-03T22:30:50.451Z,8.02
2023-02-03T22:33:17.998Z,21.85
2023-02-03T22:35:45.713Z,5.88
2023-02-03T22:38:13.040Z,7.90
2023-02-03T22:40:40.577Z,7.43
2023-02-03T22:43:07.853Z,5.30
2023-02-03T22:45:35.442Z,3.92
2023-02-03T22:48:02.808Z,3.83
2023-02-03T22:50:35.811Z,5.45
2023-02-03T22:53:04.507Z,3.55
2023-02-03T22:55:32.163Z,4.13
2023-02-03T22:57:59.496Z,5.90
2023-02-03T23:00:27.118Z,2.42
2023-02-03T23:02:54.758Z,3.70
2023-02-03T23:05:23.059Z,2.38
2023-02-03T23:07:51.018Z,6.25
2023-02-03T23:10:22.278Z,2.30
2023-02-03T23:12:50.011Z,2.22
2023-02-03T23:15:18.420Z,3.55
2023-02-03T23:17:45.927Z,3.22
2023-02-03T23:20:15.459Z,4.75
2023-02-03T23:22:43.751Z,4.75
2023-02-03T23:25:12.020Z,1.50
2023-02-03T23:27:39.849Z,2.10
2023-02-03T23:30:08.611Z,1.42
2023-02-03T23:32:36.016Z,2.92
2023-02-03T23:35:22.748Z,0.73
2023-02-03T23:37:50.084Z,1.95
2023-02-03T23:40:17.897Z,2.05
2023-02-03T23:42:45.163Z,1.17
2023-02-03T23:45:12.838Z,3.17
2023-02-03T23:47:42.234Z,1.67
2023-02-03T23:50:12.196Z,3.90
2023-02-03T23:52:39.568Z,1.23
2023-02-03T23:55:10.308Z,1.35
2023-02-03T23:57:38.034Z,1.33
